createdAt,value
2023-04-15T00:01:46.697Z,1.92
2023-04-15T00:04:49.148Z,2.33
2023-04-15T00:07:51.649Z,1.65
2023-04-15T00:10:53.918Z,1.90
2023-04-15T00:13:56.202Z,1.23
2023-04-15T00:16:59.846Z,2.05
2023-04-15T00:20:02.213Z,1.90
2023-04-15T00:23:05.497Z,1.55
2023-04-15T00:26:08.610Z,1.80
2023-04-15T00:29:10.874Z,1.85
2023-04-15T00:32:15.396Z,1.70
2023-04-15T00:35:18.182Z,2.00
2023-04-15T00:38:20.471Z,1.85
2023-04-15T00:41:23.119Z,2.22
2023-04-15T00:44:25.695Z,1.75
2023-04-15T00:47:29.909Z,1.60
2023-04-15T00:50:32.981Z,2.00
2023-04-15T00:53:35.253Z,2.33
2023-04-15T00:56:38.886Z,2.70
2023-04-15T00:59:41.130Z,2.15
2023-04-15T01:02:44.878Z,1.83
2023-04-15T01:05:47.434Z,1.98
2023-04-15T01:08:49.873Z,2.40
2023-04-15T01:11:52.410Z,2.22
2023-04-15T01:14:55.342Z,2.17
2023-04-15T01:17:59.292Z,2.17
2023-04-15T01:21:03.765Z,2.03
2023-04-15T01:24:09.734Z,1.75
2023-04-15T01:27:13.344Z,1.98
2023-04-15T01:30:17.628Z,2.28
2023-04-15T01:33:19.944Z,2.05
2023-04-15T01:36:22.232Z,1.70
2023-04-15T01:39:28.778Z,2.13
2023-04-15T01:42:35.044Z,2.10
2023-04-15T01:45:37.584Z,2.58
2023-04-15T01:48:39.808Z,2.35
2023-04-15T01:51:42.083Z,3.78
2023-04-15T01:54:44.568Z,2.38
2023-04-15T01:57:48.987Z,2.22
2023-04-15T02:00:51.476Z,2.15
2023-04-15T02:03:53.933Z,2.10
2023-04-15T02:06:56.854Z,2.13
2023-04-15T02:09:59.204Z,2.50
2023-04-15T02:13:02.895Z,2.28
2023-04-15T02:16:17.558Z,2.20
2023-04-15T02:19:20.118Z,2.05
2023-04-15T02:22:22.656Z,2.60
2023-04-15T02:25:25.098Z,2.60
2023-04-15T02:28:28.719Z,2.47
2023-04-15T02:31:34.052Z,2.10
2023-04-15T02:34:37.705Z,2.47
2023-04-15T02:37:45.757Z,2.53
2023-04-15T02:40:49.774Z,2.33
2023-04-15T02:43:53.525Z,2.17
2023-04-15T02:46:55.787Z,2.28
2023-04-15T02:50:00.399Z,3.03
2023-04-15T02:53:05.622Z,1.77
2023-04-15T02:56:08.342Z,2.08
2023-04-15T02:59:12.328Z,2.30
2023-04-15T03:02:14.900Z,1.90
2023-04-15T03:05:18.489Z,2.78
2023-04-15T03:08:26.703Z,1.75
2023-04-15T03:11:29.568Z,1.85
2023-04-15T03:14:33.610Z,1.70
2023-04-15T03:17:36.582Z,1.90
2023-04-15T03:20:39.238Z,2.00
2023-04-15T03:23:41.529Z,2.10
2023-04-15T03:26:43.964Z,1.60
2023-04-15T03:29:51.813Z,2.05
2023-04-15T03:32:55.552Z,2.40
2023-04-15T03:35:57.916Z,1.98
2023-04-15T03:39:03.076Z,1.65
2023-04-15T03:42:05.545Z,1.80
2023-04-15T03:45:10.231Z,1.33
2023-04-15T03:48:17.736Z,1.88
2023-04-15T03:51:20.576Z,1.88
2023-04-15T03:54:23.442Z,1.73
2023-04-15T03:57:25.661Z,2.20
2023-04-15T04:00:29.457Z,1.50
2023-04-15T04:03:32.019Z,1.67
2023-04-15T04:06:34.403Z,1.90
2023-04-15T04:09:39.305Z,1.73
2023-04-15T04:12:41.666Z,1.88
2023-04-15T04:15:45.281Z,2.13
2023-04-15T04:18:47.654Z,2.17
2023-04-15T04:21:49.832Z,1.90
2023-04-15T04:24:52.046Z,1.83
2023-04-15T04:27:55.477Z,2.40
2023-04-15T04:31:01.706Z,2.38
2023-04-15T04:34:03.862Z,2.33
2023-04-15T04:37:06.914Z,2.50
2023-04-15T04:40:10.615Z,1.80
2023-04-15T04:43:13.995Z,2.22
2023-04-15T04:46:20.670Z,1.83
2023-04-15T04:49:23.020Z,1.58
2023-04-15T04:52:25.561Z,1.88
2023-04-15T04:55:28.065Z,2.05
2023-04-15T04:58:30.740Z,2.05
2023-04-15T05:01:34.380Z,1.83
2023-04-15T05:04:37.104Z,2.10
2023-04-15T05:07:42.195Z,1.70
2023-04-15T05:10:45.478Z,2.15
2023-04-15T05:13:47.680Z,2.10
2023-04-15T05:16:51.420Z,1.50
2023-04-15T05:19:53.792Z,2.55
2023-04-15T05:22:56.136Z,1.92
2023-04-15T05:25:58.354Z,1.98
2023-04-15T05:29:00.998Z,1.88
2023-04-15T05:32:05.598Z,1.92
2023-04-15T05:35:08.530Z,1.80
2023-04-15T05:38:10.903Z,3.22
2023-04-15T05:41:16.593Z,2.60
2023-04-15T05:44:20.696Z,2.30
2023-04-15T05:47:24.295Z,2.63
2023-04-15T05:50:26.548Z,2.38
2023-04-15T05:53:28.773Z,2.60
2023-04-15T05:56:32.272Z,2.70
2023-04-15T05:59:36.963Z,3.03
2023-04-15T06:02:41.140Z,2.95
2023-04-15T06:05:44.913Z,2.63
2023-04-15T06:08:47.157Z,2.72
2023-04-15T06:11:49.484Z,2.92
2023-04-15T06:14:51.819Z,2.47
2023-04-15T06:17:56.041Z,3.03
2023-04-15T06:20:58.403Z,3.03
2023-04-15T06:24:05.390Z,3.42
2023-04-15T06:27:08.000Z,3.10
2023-04-15T06:30:14.320Z,3.08
2023-04-15T06:33:20.327Z,3.20
2023-04-15T06:36:24.627Z,2.75
2023-04-15T06:39:29.103Z,2.88
2023-04-15T06:42:31.544Z,2.53
2023-04-15T06:45:35.499Z,2.90
2023-04-15T06:48:39.140Z,2.70
2023-04-15T06:51:42.792Z,3.00
2023-04-15T06:54:46.624Z,2.70
2023-04-15T06:57:48.916Z,3.28
2023-04-15T07:00:57.221Z,2.25
2023-04-15T07:04:03.993Z,2.70
2023-04-15T07:07:09.728Z,2.72
2023-04-15T07:10:12.439Z,2.63
2023-04-15T07:13:21.052Z,2.90
2023-04-15T07:16:28.643Z,2.72
2023-04-15T07:19:33.389Z,3.10
2023-04-15T07:22:35.638Z,2.88
2023-04-15T07:25:49.165Z,3.40
2023-04-15T07:28:52.081Z,3.75
2023-04-15T07:31:57.179Z,3.60
2023-04-15T07:35:02.347Z,4.20
2023-04-15T07:38:07.678Z,3.90
2023-04-15T07:41:10.768Z,3.47
2023-04-15T07:44:36.199Z,3.72
2023-04-15T07:47:54.272Z,3.53
2023-04-15T07:51:16.967Z,3.55
2023-04-15T07:54:23.192Z,3.33
2023-04-15T07:57:27.920Z,3.55
2023-04-15T08:00:32.865Z,3.75
2023-04-15T08:03:35.459Z,3.97
2023-04-15T08:06:46.917Z,3.28
2023-04-15T08:09:49.148Z,3.55
2023-04-15T08:12:54.282Z,4.43
2023-04-15T08:16:16.828Z,3.45
2023-04-15T08:19:21.156Z,2.88
2023-04-15T08:22:24.974Z,2.00
2023-04-15T08:25:27.596Z,1.95
2023-04-15T08:28:30.190Z,0.90
2023-04-15T08:31:32.652Z,1.10
2023-04-15T08:34:35.240Z,0.80
2023-04-15T08:37:38.873Z,1.13
2023-04-15T08:40:42.826Z,0.73
2023-04-15T08:43:47.998Z,0.70
2023-04-15T08:46:50.462Z,0.60
2023-04-15T08:49:55.022Z,0.60
2023-04-15T08:52:59.138Z,0.80
2023-04-15T08:56:05.656Z,1.23
2023-04-15T08:59:08.133Z,0.93
2023-04-15T09:02:11.587Z,0.80
2023-04-15T09:05:13.939Z,0.80
2023-04-15T09:08:17.645Z,0.90
2023-04-15T09:11:21.860Z,0.90
2023-04-15T09:14:24.149Z,0.75
2023-04-15T09:17:27.772Z,0.73
2023-04-15T09:20:30.126Z,0.90
2023-04-15T09:23:34.234Z,0.95
2023-04-15T09:26:37.788Z,0.88
2023-04-15T09:29:41.497Z,0.60
2023-04-15T09:32:49.850Z,1.05
2023-04-15T09:36:00.300Z,0.80
2023-04-15T09:39:06.110Z,0.80
2023-04-15T09:42:08.573Z,0.80
2023-04-15T09:45:12.110Z,0.70
2023-04-15T09:48:17.551Z,0.80
2023-04-15T09:51:34.431Z,0.90
2023-04-15T09:54:38.813Z,0.98
2023-04-15T09:57:41.867Z,0.80
2023-04-15T10:00:44.670Z,0.77
2023-04-15T10:03:47.210Z,1.20
2023-04-15T10:06:49.789Z,1.35
2023-04-15T10:09:53.606Z,1.10
2023-04-15T10:12:56.226Z,1.10
2023-04-15T10:16:00.472Z,1.80
2023-04-15T10:19:05.435Z,1.30
2023-04-15T10:22:08.158Z,1.88
2023-04-15T10:25:12.589Z,1.35
2023-04-15T10:28:16.430Z,1.45
2023-04-15T10:31:20.155Z,1.20
2023-04-15T10:34:24.232Z,1.60
2023-04-15T10:37:34.531Z,1.50
2023-04-15T10:40:39.556Z,1.17
2023-04-15T10:43:46.555Z,1.50
2023-04-15T10:46:51.815Z,1.30
2023-04-15T10:49:58.117Z,1.52
2023-04-15T10:53:03.666Z,2.40
2023-04-15T10:56:07.810Z,1.80
2023-04-15T10:59:10.282Z,1.65
2023-04-15T11:02:14.216Z,1.40
2023-04-15T11:05:17.315Z,1.27
2023-04-15T11:08:20.518Z,1.30
2023-04-15T11:11:24.422Z,1.80
2023-04-15T11:14:30.743Z,1.50
2023-04-15T11:17:34.284Z,1.88
2023-04-15T11:20:39.367Z,1.70
2023-04-15T11:23:48.833Z,1.75
2023-04-15T11:26:57.629Z,1.67
2023-04-15T11:29:59.966Z,2.25
2023-04-15T11:33:03.544Z,2.20
2023-04-15T11:36:07.659Z,1.55
2023-04-15T11:39:10.769Z,1.70
2023-04-15T11:42:18.776Z,1.95
2023-04-15T11:45:21.287Z,1.90
2023-04-15T11:48:25.439Z,2.20
2023-04-15T11:51:32.755Z,2.10
2023-04-15T11:54:35.045Z,1.70
2023-04-15T11:57:38.697Z,1.75
2023-04-15T12:00:41.950Z,2.45
2023-04-15T12:03:47.231Z,3.22
2023-04-15T12:06:50.688Z,2.60
2023-04-15T12:09:55.365Z,2.55
2023-04-15T12:12:59.052Z,2.95
2023-04-15T12:16:03.686Z,3.67
2023-04-15T12:19:08.462Z,2.92
2023-04-15T12:22:12.171Z,3.38
2023-04-15T12:25:14.840Z,3.70
2023-04-15T12:28:18.744Z,3.20
2023-04-15T12:31:21.097Z,2.95
2023-04-15T12:34:28.481Z,2.70
2023-04-15T12:37:30.860Z,2.88
2023-04-15T12:40:33.117Z,2.78
2023-04-15T12:43:37.826Z,2.83
2023-04-15T12:46:40.226Z,2.22
2023-04-15T12:49:42.606Z,2.22
2023-04-15T12:52:44.891Z,1.65
2023-04-15T12:55:47.187Z,1.52
2023-04-15T12:58:51.339Z,1.80
2023-04-15T13:01:54.162Z,1.92
2023-04-15T13:04:56.960Z,1.85
2023-04-15T13:07:59.853Z,2.38
2023-04-15T13:11:02.162Z,1.73
2023-04-15T13:14:07.462Z,1.52
2023-04-15T13:17:11.467Z,2.10
2023-04-15T13:20:14.224Z,1.92
2023-04-15T13:23:17.014Z,2.42
2023-04-15T13:26:19.536Z,2.25
2023-04-15T13:29:23.353Z,1.50
2023-04-15T13:32:25.872Z,1.58
2023-04-15T13:35:28.265Z,2.10
2023-04-15T13:38:30.630Z,1.92
2023-04-15T13:41:32.970Z,1.42
2023-04-15T13:44:36.710Z,1.70
2023-04-15T13:47:40.615Z,1.85
2023-04-15T13:50:45.351Z,2.05
2023-04-15T13:53:47.736Z,2.60
2023-04-15T13:56:50.443Z,2.38
2023-04-15T13:59:54.405Z,2.78
2023-04-15T14:02:57.207Z,1.95
2023-04-15T14:06:00.414Z,2.20
2023-04-15T14:09:03.913Z,1.95
2023-04-15T14:12:06.547Z,1.77
2023-04-15T14:15:10.738Z,2.00
2023-04-15T14:18:13.046Z,2.00
2023-04-15T14:21:15.412Z,1.83
2023-04-15T14:24:17.846Z,1.83
2023-04-15T14:27:20.131Z,2.30
2023-04-15T14:30:24.280Z,2.75
2023-04-15T14:33:26.815Z,3.40
2023-04-15T14:36:29.254Z,2.90
2023-04-15T14:39:31.639Z,3.70
2023-04-15T14:42:33.940Z,2.72
2023-04-15T14:45:39.345Z,4.68
2023-04-15T14:48:43.007Z,5.80
2023-04-15T14:51:46.371Z,6.18
2023-04-15T14:54:49.065Z,6.00
2023-04-15T14:57:54.290Z,5.47
2023-04-15T15:00:58.078Z,5.90
2023-04-15T15:04:00.744Z,4.68
2023-04-15T15:07:04.352Z,4.28
2023-04-15T15:10:07.713Z,4.03
2023-04-15T15:13:10.757Z,3.67
2023-04-15T15:16:15.032Z,3.15
2023-04-15T15:19:18.048Z,8.38
2023-04-15T15:22:21.427Z,9.68
2023-04-15T15:25:24.779Z,12.50
2023-04-15T15:28:27.276Z,4.53
2023-04-15T15:31:31.051Z,3.70
2023-04-15T15:34:33.448Z,4.68
2023-04-15T15:37:36.283Z,2.88
2023-04-15T15:40:38.629Z,3.20
2023-04-15T15:43:40.969Z,2.45
2023-04-15T15:46:47.271Z,2.90
2023-04-15T15:49:49.715Z,2.35
2023-04-15T15:52:55.192Z,2.60
2023-04-15T15:55:57.580Z,2.40
2023-04-15T15:59:00.001Z,2.67
2023-04-15T16:02:07.788Z,2.35
2023-04-15T16:05:10.767Z,2.75
2023-04-15T16:08:13.239Z,2.65
2023-04-15T16:11:16.050Z,2.10
2023-04-15T16:14:18.724Z,2.50
2023-04-15T16:17:22.529Z,2.92
2023-04-15T16:20:24.997Z,2.85
2023-04-15T16:23:27.312Z,2.88
2023-04-15T16:26:29.701Z,2.72
2023-04-15T16:29:32.123Z,3.17
2023-04-15T16:32:36.246Z,3.00
2023-04-15T16:35:38.714Z,3.05
2023-04-15T16:38:41.070Z,2.88
2023-04-15T16:41:43.672Z,3.58
2023-04-15T16:44:46.236Z,3.20
2023-04-15T16:47:50.215Z,3.30
2023-04-15T16:50:52.759Z,3.05
2023-04-15T16:53:55.381Z,3.17
2023-04-15T16:56:58.659Z,2.95
2023-04-15T17:00:04.983Z,3.33
2023-04-15T17:03:09.283Z,3.22
2023-04-15T17:06:12.126Z,3.67
2023-04-15T17:09:14.608Z,4.03
2023-04-15T17:12:20.567Z,3.40
2023-04-15T17:15:23.065Z,2.47
2023-04-15T17:18:27.171Z,2.47
